Time;durP1;ratioP1;P1;durP2;ratioP2;P2;SDS_P1;SDS_P2;PMS_P1;PMS_P2;Temp;Humidity;BMP_temperature;BMP_pressure;BME280_temperature;BME280_humidity;BME280_pressure;Samples;Min_cycle;Max_cycle;Signal;HPM_P1;HPM_P2
2020/12/27 00:00:18;;;;;;;3.73;2.53;;;;;;;-1.23;84.79;100730.63;5036183;28;20235;-81
2020/12/27 00:02:44;;;;;;;4.37;2.67;;;;;;;-1.22;84.49;100729.78;5035927;28;20214;-80
2020/12/27 00:05:10;;;;;;;3.53;2.90;;;;;;;-1.28;84.62;100716.88;5042741;28;20199;-81
2020/12/27 00:07:39;;;;;;;4.67;2.90;;;;;;;-1.26;84.51;100725.44;5037060;28;20378;-81
2020/12/27 00:10:06;;;;;;;4.63;2.73;;;;;;;-1.26;84.44;100712.66;5038458;28;20243;-81
2020/12/27 00:12:32;;;;;;;5.07;2.50;;;;;;;-1.23;84.15;100720.38;5040432;28;20250;-80
2020/12/27 00:14:58;;;;;;;4.17;3.13;;;;;;;-1.20;84.19;100713.63;5037250;28;20208;-80
2020/12/27 00:17:24;;;;;;;2.90;2.23;;;;;;;-1.23;84.12;100705.91;5036461;28;20299;-81
2020/12/27 00:19:53;;;;;;;4.20;3.10;;;;;;;-1.22;84.38;100694.81;5045547;28;20279;-80
2020/12/27 00:22:21;;;;;;;3.87;2.93;;;;;;;-1.23;84.42;100690.56;5046275;28;20202;-81
2020/12/27 00:24:47;;;;;;;3.77;2.80;;;;;;;-1.30;84.91;100683.56;5039565;28;20212;-80
2020/12/27 00:27:14;;;;;;;6.00;3.37;;;;;;;-1.34;84.58;100681.75;5046922;28;20235;-80
2020/12/27 00:29:40;;;;;;;5.10;2.93;;;;;;;-1.38;84.82;100672.28;5040620;28;20247;-80
2020/12/27 00:32:06;;;;;;;5.07;3.17;;;;;;;-1.41;84.61;100669.66;5053184;28;20221;-79
2020/12/27 00:34:33;;;;;;;4.67;3.40;;;;;;;-1.47;85.56;100674.63;5052295;28;20235;-80
2020/12/27 00:36:59;;;;;;;5.83;3.43;;;;;;;-1.54;85.12;100661.69;5052573;28;20223;-80
2020/12/27 00:39:26;;;;;;;5.03;3.10;;;;;;;-1.55;85.87;100648.88;5047543;28;20320;-80
2020/12/27 00:41:57;;;;;;;6.27;3.87;;;;;;;-1.58;85.64;100651.38;5056291;28;20227;-80
2020/12/27 00:44:24;;;;;;;5.37;3.33;;;;;;;-1.64;85.99;100646.09;5041118;28;20600;-81
2020/12/27 00:46:50;;;;;;;4.33;3.43;;;;;;;-1.68;86.52;100640.06;5038515;28;20443;-81
2020/12/27 00:49:16;;;;;;;5.80;3.63;;;;;;;-1.72;86.78;100631.44;5040874;28;20252;-81
2020/12/27 00:51:42;;;;;;;4.97;3.23;;;;;;;-1.75;86.83;100622.84;5042106;28;20208;-81
2020/12/27 00:54:08;;;;;;;5.67;3.83;;;;;;;-1.79;86.71;100624.47;5044467;28;20749;-80
2020/12/27 00:56:34;;;;;;;7.53;3.93;;;;;;;-1.75;86.72;100612.63;5035768;28;20200;-80
2020/12/27 00:59:10;;;;;;;6.13;4.07;;;;;;;-1.73;86.62;100616.06;5039145;28;20203;-81
2020/12/27 01:01:37;;;;;;;6.27;4.03;;;;;;;-1.72;86.61;100612.69;5034621;28;20227;-81
2020/12/27 01:04:24;;;;;;;6.17;4.33;;;;;;;-1.75;86.58;100610.06;5038870;28;20218;-80
2020/12/27 01:06:50;;;;;;;5.13;3.53;;;;;;;-1.81;87.37;100607.34;5035918;28;20250;-80
2020/12/27 01:09:17;;;;;;;6.83;4.37;;;;;;;-1.79;87.58;100604.00;5039860;28;21010;-80
2020/12/27 01:11:45;;;;;;;5.47;4.13;;;;;;;-1.84;87.70;100603.03;5043849;28;20203;-82
2020/12/27 01:14:11;;;;;;;6.97;4.00;;;;;;;-1.87;87.80;100595.28;5040118;28;20196;-82
2020/12/27 01:16:38;;;;;;;8.13;4.53;;;;;;;-1.88;88.09;100585.91;5041707;28;20227;-82
2020/12/27 01:19:05;;;;;;;8.10;4.40;;;;;;;-1.84;87.75;100587.69;5037150;28;20284;-82
2020/12/27 01:21:41;;;;;;;6.20;4.50;;;;;;;-1.86;88.05;100574.03;5036912;28;20199;-82
2020/12/27 01:24:10;;;;;;;5.53;4.23;;;;;;;-1.91;88.31;100566.22;5050581;28;20280;-82
2020/12/27 01:26:40;;;;;;;6.00;3.97;;;;;;;-1.93;88.10;100567.03;5043648;28;20195;-83
2020/12/27 01:29:06;;;;;;;6.23;4.20;;;;;;;-1.95;88.20;100554.22;5044888;28;20286;-82
2020/12/27 01:31:39;;;;;;;7.73;4.97;;;;;;;-1.94;88.01;100549.97;5054282;28;21042;-83
2020/12/27 01:34:16;;;;;;;7.90;4.70;;;;;;;-1.96;88.30;100547.38;5037614;28;20208;-82
2020/12/27 01:36:43;;;;;;;6.67;4.17;;;;;;;-1.96;88.20;100541.41;5041903;28;20278;-83
2020/12/27 01:39:17;;;;;;;6.30;3.50;;;;;;;-1.96;88.94;100537.16;5038123;28;20331;-83
2020/12/27 01:41:42;;;;;;;6.13;3.77;;;;;;;-2.01;88.42;100530.22;5043226;28;20205;-82
2020/12/27 01:44:18;;;;;;;6.33;4.13;;;;;;;-2.04;88.46;100527.56;5043439;28;20215;-82
2020/12/27 01:46:48;;;;;;;9.73;4.33;;;;;;;-2.10;88.90;100518.94;5047905;28;20210;-82
2020/12/27 01:49:24;;;;;;;5.67;3.90;;;;;;;-2.15;88.98;100510.28;5036505;28;20220;-83
2020/12/27 01:51:51;;;;;;;7.47;4.37;;;;;;;-2.19;88.88;100503.41;5040782;28;20466;-84
2020/12/27 01:54:27;;;;;;;6.47;4.20;;;;;;;-2.20;89.11;100506.78;5048712;28;20194;-83
2020/12/27 01:57:12;;;;;;;6.53;4.27;;;;;;;-2.21;89.03;100504.19;5040906;28;20251;-83
2020/12/27 01:59:42;;;;;;;6.17;4.47;;;;;;;-2.24;89.17;100504.97;5043264;28;20217;-82
2020/12/27 02:02:29;;;;;;;5.57;3.97;;;;;;;-2.26;89.24;100495.56;5031406;28;20212;-82
2020/12/27 02:05:10;;;;;;;7.70;4.40;;;;;;;-2.26;89.37;100480.25;5033640;28;20711;-82
2020/12/27 02:07:38;;;;;;;6.07;3.50;;;;;;;-2.28;89.09;100486.16;5023968;28;20468;-82
2020/12/27 02:10:11;;;;;;;8.60;4.90;;;;;;;-2.32;89.57;100463.09;5031844;28;20315;-82
2020/12/27 02:12:39;;;;;;;7.20;4.57;;;;;;;-2.34;90.32;100465.59;5022083;28;20242;-83
2020/12/27 02:15:07;;;;;;;6.40;4.17;;;;;;;-2.39;90.41;100448.41;5033395;28;20213;-82
2020/12/27 02:17:54;;;;;;;5.83;4.13;;;;;;;-2.41;90.70;100450.06;5020922;28;20215;-82
2020/12/27 02:20:25;;;;;;;7.17;4.00;;;;;;;-2.45;89.90;100448.28;5031492;28;20212;-84
2020/12/27 02:23:12;;;;;;;6.63;4.53;;;;;;;-2.49;90.55;100435.44;5034325;28;20478;-82
2020/12/27 02:25:44;;;;;;;7.37;4.30;;;;;;;-2.49;90.77;100432.88;5030377;28;20212;-82
2020/12/27 02:28:18;;;;;;;6.03;4.00;;;;;;;-2.50;91.15;100425.19;5029527;28;20454;-83
2020/12/27 02:30:44;;;;;;;6.63;4.17;;;;;;;-2.54;90.54;100414.03;5030899;28;20529;-82
2020/12/27 02:33:10;;;;;;;6.03;3.97;;;;;;;-2.56;90.36;100402.06;5032874;28;20195;-82
2020/12/27 02:35:37;;;;;;;6.17;3.67;;;;;;;-2.54;90.12;100390.19;5035402;28;20253;-83
2020/12/27 02:38:07;;;;;;;6.93;4.23;;;;;;;-2.55;90.84;100385.91;5029197;28;20826;-83
2020/12/27 02:40:35;;;;;;;5.73;3.70;;;;;;;-2.58;90.45;100380.75;5028839;28;20945;-84
2020/12/27 02:43:31;;;;;;;5.40;3.93;;;;;;;-2.58;90.42;100373.94;5017785;28;20221;-82
2020/12/27 02:45:57;;;;;;;5.33;3.67;;;;;;;-2.57;90.46;100377.34;5028303;28;20809;-84
2020/12/27 02:48:41;;;;;;;5.63;3.90;;;;;;;-2.57;90.53;100378.25;5034195;28;20476;-83
2020/12/27 02:51:15;;;;;;;4.70;3.47;;;;;;;-2.54;90.37;100380.84;5034569;28;21047;-83
2020/12/27 02:53:41;;;;;;;6.53;3.73;;;;;;;-2.58;90.00;100373.94;5040973;28;20527;-84
2020/12/27 02:56:07;;;;;;;9.33;4.03;;;;;;;-2.59;90.15;100366.25;5038588;28;20489;-83
2020/12/27 02:58:35;;;;;;;5.90;3.60;;;;;;;-2.55;90.16;100358.72;5043397;28;20465;-82
2020/12/27 03:01:01;;;;;;;6.93;4.20;;;;;;;-2.55;89.95;100355.28;5034378;28;20461;-81
2020/12/27 03:03:47;;;;;;;5.07;3.73;;;;;;;-2.51;89.72;100350.28;5035699;28;20474;-82
2020/12/27 03:06:19;;;;;;;6.50;4.00;;;;;;;-2.53;89.69;100335.78;5031462;28;20454;-82
2020/12/27 03:08:54;;;;;;;6.67;3.93;;;;;;;-2.52;89.74;100346.00;5039505;28;20214;-81
2020/12/27 03:11:37;;;;;;;6.27;3.90;;;;;;;-2.48;89.01;100346.94;5045577;28;20476;-82
2020/12/27 03:14:06;;;;;;;9.23;4.03;;;;;;;-2.51;89.02;100339.22;5025900;28;20196;-82
2020/12/27 03:16:33;;;;;;;6.37;3.47;;;;;;;-2.52;89.58;100330.69;5032225;28;20562;-81
2020/12/27 03:19:13;;;;;;;6.10;3.57;;;;;;;-2.53;89.53;100326.41;5034209;28;20483;-81
2020/12/27 03:21:49;;;;;;;5.67;3.93;;;;;;;-2.54;89.76;100316.16;5042919;28;20475;-82
2020/12/27 03:24:35;;;;;;;6.50;3.40;;;;;;;-2.52;90.18;100305.16;5028793;28;21001;-82
2020/12/27 03:27:01;;;;;;;6.20;3.40;;;;;;;-2.53;89.38;100295.78;5036342;28;20465;-82
2020/12/27 03:29:28;;;;;;;6.53;3.43;;;;;;;-2.45;89.21;100288.28;5041993;28;20225;-82
2020/12/27 03:31:54;;;;;;;6.87;3.97;;;;;;;-2.41;89.01;100281.53;5035033;28;20268;-82
2020/12/27 03:34:21;;;;;;;6.63;3.87;;;;;;;-2.36;88.63;100282.50;5025419;28;20200;-82
2020/12/27 03:36:47;;;;;;;6.40;3.53;;;;;;;-2.38;88.87;100276.50;5037130;28;20444;-82
2020/12/27 03:39:33;;;;;;;8.43;3.47;;;;;;;-2.35;88.48;100277.44;5038294;28;20253;-82
2020/12/27 03:42:18;;;;;;;6.40;3.60;;;;;;;-2.31;88.58;100266.44;5039939;28;20969;-82
2020/12/27 03:44:55;;;;;;;6.13;3.27;;;;;;;-2.24;88.45;100266.56;5033122;28;20481;-82
2020/12/27 03:47:55;;;;;;;6.00;4.07;;;;;;;-2.21;87.96;100264.94;5035505;28;20209;-81
2020/12/27 03:50:39;;;;;;;8.23;4.50;;;;;;;-2.21;88.37;100261.53;5034123;28;20480;-81
2020/12/27 03:53:05;;;;;;;7.00;4.33;;;;;;;-2.17;87.65;100255.66;5030872;28;20208;-81
2020/12/27 03:55:50;;;;;;;8.00;3.97;;;;;;;-2.20;88.04;100236.03;5035114;28;20206;-82
2020/12/27 03:58:39;;;;;;;7.57;4.00;;;;;;;-2.17;87.76;100228.41;4998649;28;20216;-81
2020/12/27 04:01:13;;;;;;;7.70;3.87;;;;;;;-2.21;87.82;100224.06;5026289;28;20253;-82
2020/12/27 04:03:40;;;;;;;5.77;3.60;;;;;;;-2.14;87.51;100222.50;5023004;28;20299;-82
2020/12/27 04:06:14;;;;;;;5.80;3.33;;;;;;;-2.10;86.74;100217.47;5039184;28;20518;-82
2020/12/27 04:08:42;;;;;;;5.10;3.40;;;;;;;-2.12;87.50;100215.72;5050513;28;20465;-82
2020/12/27 04:11:09;;;;;;;5.67;3.60;;;;;;;-2.15;87.69;100203.75;5043062;28;20476;-81
2020/12/27 04:13:36;;;;;;;6.70;3.77;;;;;;;-2.16;87.10;100199.47;5033503;28;20455;-82
2020/12/27 04:16:08;;;;;;;6.87;3.67;;;;;;;-2.14;87.07;100189.28;5043631;28;20668;-82
2020/12/27 04:18:36;;;;;;;4.97;3.37;;;;;;;-2.14;87.43;100192.69;5034726;28;20663;-82
2020/12/27 04:21:16;;;;;;;5.57;3.43;;;;;;;-2.12;86.96;100192.72;5034372;28;20690;-82
2020/12/27 04:23:49;;;;;;;6.10;3.73;;;;;;;-2.10;86.69;100198.72;5033280;28;20226;-82
2020/12/27 04:26:17;;;;;;;4.13;3.20;;;;;;;-2.11;86.33;100190.22;5038764;28;20247;-82
2020/12/27 04:28:45;;;;;;;5.90;4.23;;;;;;;-2.12;85.95;100190.19;5036787;28;20200;-82
2020/12/27 04:31:13;;;;;;;7.30;4.07;;;;;;;-2.14;86.30;100197.81;5050215;28;20220;-82
2020/12/27 04:33:44;;;;;;;6.07;3.43;;;;;;;-2.06;85.25;100202.19;5036247;28;20204;-82
2020/12/27 04:36:28;;;;;;;5.83;3.50;;;;;;;-2.05;85.14;100206.50;5041212;28;20746;-82
2020/12/27 04:38:56;;;;;;;5.03;3.57;;;;;;;-2.08;84.91;100201.31;5040909;28;20231;-82
2020/12/27 04:41:25;;;;;;;7.57;3.47;;;;;;;-2.09;85.45;100197.91;5038126;28;20854;-82
2020/12/27 04:43:55;;;;;;;7.20;3.90;;;;;;;-2.10;84.71;100203.84;5040816;28;20220;-82
2020/12/27 04:46:21;;;;;;;4.93;3.30;;;;;;;-2.09;83.67;100200.47;5035295;28;20212;-82
2020/12/27 04:48:59;;;;;;;7.17;3.13;;;;;;;-2.10;84.30;100201.28;5037308;28;20561;-81
2020/12/27 04:51:33;;;;;;;5.63;3.20;;;;;;;-2.11;83.72;100195.31;5030821;28;20217;-82
2020/12/27 04:54:26;;;;;;;4.67;2.93;;;;;;;-2.14;84.14;100202.06;5015723;28;20200;-82
2020/12/27 04:56:59;;;;;;;5.37;3.20;;;;;;;-2.14;83.79;100202.06;5050793;28;20534;-82
2020/12/27 04:59:26;;;;;;;4.23;2.80;;;;;;;-2.20;83.42;100192.59;5036143;28;20212;-82
2020/12/27 05:01:53;;;;;;;5.23;3.30;;;;;;;-2.19;83.78;100188.34;5038594;28;20431;-82
2020/12/27 05:04:30;;;;;;;3.97;2.63;;;;;;;-2.17;84.04;100182.41;5046387;28;20290;-82
2020/12/27 05:07:04;;;;;;;3.70;2.47;;;;;;;-2.17;83.28;100184.97;5026351;28;20207;-81
2020/12/27 05:09:56;;;;;;;2.80;2.30;;;;;;;-2.19;83.02;100170.47;5028155;28;20812;-81
2020/12/27 05:12:22;;;;;;;3.77;2.83;;;;;;;-2.16;82.26;100166.28;5032768;28;20242;-81
2020/12/27 05:14:50;;;;;;;3.60;2.50;;;;;;;-2.17;82.08;100166.25;5039761;28;20219;-81
2020/12/27 05:17:20;;;;;;;4.13;2.87;;;;;;;-2.17;81.75;100161.13;5036670;28;20596;-82
2020/12/27 05:19:54;;;;;;;4.20;2.43;;;;;;;-2.16;82.43;100148.41;5032993;28;20307;-81
2020/12/27 05:22:21;;;;;;;4.23;2.37;;;;;;;-2.17;82.29;100149.22;5038753;28;20454;-81
2020/12/27 05:25:02;;;;;;;3.93;2.30;;;;;;;-2.17;81.47;100136.44;5042686;28;20257;-81
2020/12/27 05:27:49;;;;;;;4.00;2.57;;;;;;;-2.16;81.49;100125.41;5038027;28;20196;-81
2020/12/27 05:30:32;;;;;;;3.20;2.43;;;;;;;-2.16;81.27;100129.66;5031244;28;20235;-81
2020/12/27 05:33:17;;;;;;;4.70;2.50;;;;;;;-2.20;80.80;100112.53;5038359;28;20691;-81
2020/12/27 05:36:11;;;;;;;3.80;1.93;;;;;;;-2.19;80.85;100107.47;5038873;28;21046;-82
2020/12/27 05:38:44;;;;;;;3.03;2.37;;;;;;;-2.13;80.00;100099.91;5050641;28;20241;-81
2020/12/27 05:41:32;;;;;;;4.80;2.57;;;;;;;-2.15;80.60;100096.44;5033780;28;20288;-80
2020/12/27 05:44:10;;;;;;;3.40;2.10;;;;;;;-2.14;79.97;100084.56;5034887;28;20212;-81
2020/12/27 05:46:36;;;;;;;2.83;2.10;;;;;;;-2.16;80.29;100076.03;5025011;28;20580;-81
2020/12/27 05:49:02;;;;;;;2.73;1.87;;;;;;;-2.15;79.69;100078.56;5033649;28;20298;-81
2020/12/27 05:51:33;;;;;;;2.33;1.77;;;;;;;-2.16;80.10;100071.75;5040529;28;20191;-81
2020/12/27 05:54:03;;;;;;;3.57;2.47;;;;;;;-2.12;79.35;100065.84;5033410;28;20286;-82
2020/12/27 05:56:58;;;;;;;6.07;2.90;;;;;;;-2.12;79.63;100060.75;5044076;28;20676;-81
2020/12/27 05:59:29;;;;;;;4.10;2.27;;;;;;;-2.08;78.98;100058.25;5030767;28;20220;-81
2020/12/27 06:01:58;;;;;;;4.00;2.23;;;;;;;-2.06;78.76;100056.56;5041874;28;20689;-81
2020/12/27 06:05:07;;;;;;;4.30;2.63;;;;;;;-2.05;78.55;100060.88;5028928;28;20204;-81
2020/12/27 06:07:37;;;;;;;3.23;2.27;;;;;;;-2.07;79.04;100060.84;5042386;28;20704;-81
2020/12/27 06:10:12;;;;;;;3.73;2.07;;;;;;;-2.03;78.64;100044.72;5037769;28;20311;-80
2020/12/27 06:13:49;;;;;;;3.20;2.23;;;;;;;-2.03;78.22;100047.25;5035055;28;20206;-82
2020/12/27 06:16:39;;;;;;;2.70;2.00;;;;;;;-2.05;78.52;100041.28;5031892;28;20695;-81
2020/12/27 06:19:40;;;;;;;3.43;2.23;;;;;;;-2.08;78.38;100042.91;5040582;28;20568;-80
2020/12/27 06:22:09;;;;;;;2.60;1.80;;;;;;;-2.06;78.07;100041.25;5031635;28;20576;-81
2020/12/27 06:24:46;;;;;;;4.37;2.70;;;;;;;-2.06;78.80;100029.31;5036088;28;20215;-80
2020/12/27 06:27:13;;;;;;;5.50;2.40;;;;;;;-2.07;77.97;100027.63;5033502;28;20242;-81
2020/12/27 06:29:45;;;;;;;4.00;2.20;;;;;;;-2.06;78.48;100031.88;5040326;28;20255;-81
2020/12/27 06:32:17;;;;;;;2.83;2.03;;;;;;;-2.05;77.37;100035.31;5034232;28;20211;-81
2020/12/27 06:34:47;;;;;;;2.93;2.00;;;;;;;-2.04;77.36;100030.22;5032651;28;20711;-81
2020/12/27 06:37:18;;;;;;;5.30;2.40;;;;;;;-2.00;76.71;100033.69;5040548;28;20290;-80
2020/12/27 06:40:19;;;;;;;4.93;2.80;;;;;;;-1.94;76.15;100015.88;5035253;28;20288;-81
2020/12/27 06:46:55;;;;;;;2.30;1.93;;;;;;;-1.95;76.87;100034.63;5006134;22;20240;-78
2020/12/27 06:49:35;;;;;;;2.97;2.03;;;;;;;-1.93;75.77;100030.41;5042830;28;20203;-77
2020/12/27 06:52:19;;;;;;;3.67;2.00;;;;;;;-1.93;75.19;100035.50;5043005;28;20734;-77
2020/12/27 06:55:03;;;;;;;2.43;1.70;;;;;;;-1.95;75.08;100034.63;5042052;28;20206;-77
2020/12/27 06:57:46;;;;;;;3.43;1.90;;;;;;;-1.96;75.83;100020.13;5017938;28;20233;-77
2020/12/27 07:00:18;;;;;;;2.90;1.73;;;;;;;-1.95;75.40;100021.84;5041257;28;20198;-77
2020/12/27 07:02:45;;;;;;;2.33;1.77;;;;;;;-1.97;75.64;100019.25;5043077;28;20279;-77
2020/12/27 07:05:11;;;;;;;5.13;2.37;;;;;;;-1.99;75.11;100018.34;5042232;28;20216;-77
2020/12/27 07:07:47;;;;;;;6.07;2.53;;;;;;;-1.95;74.88;100006.53;5045861;28;20218;-77
2020/12/27 07:10:15;;;;;;;5.10;2.50;;;;;;;-1.97;75.09;100008.16;5045923;28;20202;-77
2020/12/27 07:12:42;;;;;;;6.63;3.87;;;;;;;-2.03;76.32;99992.75;5046572;28;20215;-77
2020/12/27 07:15:10;;;;;;;8.10;4.53;;;;;;;-2.05;75.42;99985.06;5029612;28;20209;-78
2020/12/27 07:17:41;;;;;;;4.87;3.17;;;;;;;-1.97;75.00;99985.16;5028949;28;20203;-77
2020/12/27 07:20:15;;;;;;;5.03;2.83;;;;;;;-1.94;74.14;99980.97;5048694;28;20211;-78
2020/12/27 07:22:42;;;;;;;4.03;2.70;;;;;;;-1.91;74.38;99965.69;5045133;28;20222;-78
2020/12/27 07:25:12;;;;;;;4.30;2.70;;;;;;;-1.94;75.08;99975.84;5053505;28;20214;-78
2020/12/27 07:27:39;;;;;;;3.77;2.10;;;;;;;-1.95;75.53;99971.59;5044846;28;20298;-78
2020/12/27 07:30:06;;;;;;;3.63;2.17;;;;;;;-1.94;73.94;99972.44;5049872;28;20206;-78
2020/12/27 07:32:39;;;;;;;3.63;2.40;;;;;;;-1.96;75.28;99951.13;5045934;28;20313;-76
2020/12/27 07:35:08;;;;;;;3.47;2.20;;;;;;;-1.92;74.33;99950.31;5049778;28;20202;-76
2020/12/27 07:37:34;;;;;;;3.10;2.00;;;;;;;-1.91;74.55;99954.59;5041115;28;20211;-76
2020/12/27 07:40:00;;;;;;;3.83;2.33;;;;;;;-1.87;73.83;99958.06;5027236;28;20207;-76
2020/12/27 07:42:27;;;;;;;2.87;2.07;;;;;;;-1.89;74.66;99946.97;5026077;28;20237;-76
2020/12/27 07:44:56;;;;;;;2.87;2.03;;;;;;;-1.88;74.30;99936.78;5023886;28;20274;-76
2020/12/27 07:47:22;;;;;;;5.37;2.53;;;;;;;-1.83;73.88;99922.34;5032497;28;20214;-76
2020/12/27 07:50:06;;;;;;;2.90;1.90;;;;;;;-1.79;73.55;99926.66;5043028;28;20254;-76
2020/12/27 07:52:47;;;;;;;2.63;1.80;;;;;;;-1.77;73.34;99924.97;5040433;28;20231;-76
2020/12/27 07:55:27;;;;;;;3.03;1.83;;;;;;;-1.82;73.67;99913.84;5045104;28;20191;-76
2020/12/27 07:57:53;;;;;;;2.30;1.73;;;;;;;-1.81;74.60;99914.69;5043729;28;20247;-76
2020/12/27 08:00:26;;;;;;;2.87;1.97;;;;;;;-1.80;73.82;99908.75;5040461;28;20204;-76
2020/12/27 08:02:53;;;;;;;3.10;1.87;;;;;;;-1.76;73.77;99905.38;5049139;28;20264;-79
2020/12/27 08:05:20;;;;;;;4.17;1.90;;;;;;;-1.73;73.14;99905.44;5045699;28;20304;-76
2020/12/27 08:07:47;;;;;;;2.43;1.70;;;;;;;-1.68;73.05;99897.81;5043805;28;20217;-76
2020/12/27 08:10:16;;;;;;;3.40;1.93;;;;;;;-1.67;73.00;99897.84;5043009;28;20202;-77
2020/12/27 08:12:50;;;;;;;2.60;1.90;;;;;;;-1.64;72.60;99887.63;5043165;28;20234;-77
2020/12/27 08:15:16;;;;;;;3.63;1.97;;;;;;;-1.62;73.48;99885.97;5041380;28;20199;-77
2020/12/27 08:17:52;;;;;;;3.00;2.23;;;;;;;-1.60;72.46;99883.41;5042201;28;20234;-77
2020/12/27 08:20:20;;;;;;;4.13;2.13;;;;;;;-1.56;71.67;99877.50;5046225;28;20210;-77
2020/12/27 08:22:56;;;;;;;3.03;1.60;;;;;;;-1.48;71.85;99877.59;5041395;28;20218;-77
2020/12/27 08:25:22;;;;;;;2.07;1.63;;;;;;;-1.47;71.51;99877.59;5049943;28;20225;-77
2020/12/27 08:27:52;;;;;;;2.23;1.50;;;;;;;-1.44;72.41;99869.97;5041109;28;20203;-76
2020/12/27 08:30:18;;;;;;;2.00;1.60;;;;;;;-1.39;70.94;99864.88;5046605;28;20529;-77
2020/12/27 08:32:44;;;;;;;2.07;1.30;;;;;;;-1.34;70.93;99847.91;5041136;28;20225;-77
2020/12/27 08:35:23;;;;;;;2.50;1.87;;;;;;;-1.30;70.29;99841.09;5045348;28;20241;-77
2020/12/27 08:37:55;;;;;;;2.03;1.70;;;;;;;-1.27;69.86;99841.16;5045213;28;20687;-77
2020/12/27 08:40:23;;;;;;;3.57;1.70;;;;;;;-1.22;69.43;99834.38;5047010;28;20214;-77
2020/12/27 08:42:49;;;;;;;1.77;1.33;;;;;;;-1.21;69.71;99839.50;5044636;28;20238;-77
2020/12/27 08:45:19;;;;;;;1.27;1.13;;;;;;;-1.12;67.89;99825.94;5028635;28;20723;-77
2020/12/27 08:47:50;;;;;;;1.53;1.07;;;;;;;-1.11;68.37;99825.06;5043523;28;20218;-77
2020/12/27 08:50:20;;;;;;;1.70;1.40;;;;;;;-1.09;68.46;99817.41;5046259;28;20603;-77
2020/12/27 08:52:48;;;;;;;1.70;1.30;;;;;;;-1.07;67.80;99808.94;5056989;28;20317;-77
2020/12/27 08:55:15;;;;;;;3.87;1.47;;;;;;;-1.04;67.49;99814.06;5047061;28;20207;-77
2020/12/27 08:57:43;;;;;;;3.80;2.03;;;;;;;-1.02;67.54;99804.72;5053978;28;20288;-77
2020/12/27 09:00:10;;;;;;;3.13;2.00;;;;;;;-0.99;67.47;99804.72;5045841;28;20214;-77
2020/12/27 09:02:37;;;;;;;2.07;1.60;;;;;;;-0.97;68.78;99787.69;5049248;28;20626;-77
2020/12/27 09:05:05;;;;;;;2.43;1.50;;;;;;;-0.96;68.25;99797.06;5028837;28;20382;-77
2020/12/27 09:07:33;;;;;;;1.93;1.50;;;;;;;-0.92;66.89;99787.69;5048538;28;20208;-77
2020/12/27 09:10:04;;;;;;;2.40;1.70;;;;;;;-0.90;67.15;99790.28;5047652;28;20203;-77
2020/12/27 09:12:30;;;;;;;1.63;1.20;;;;;;;-0.89;67.17;99772.38;5049686;28;20305;-77
2020/12/27 09:14:56;;;;;;;1.23;1.10;;;;;;;-0.85;67.34;99778.38;5048957;28;20203;-77
2020/12/27 09:17:26;;;;;;;1.20;1.10;;;;;;;-0.85;67.17;99784.34;5043998;28;20207;-77
2020/12/27 09:19:55;;;;;;;2.77;1.47;;;;;;;-0.83;66.78;99790.31;5051752;28;20203;-77
2020/12/27 09:22:21;;;;;;;2.30;1.50;;;;;;;-0.82;67.39;99780.97;5043476;28;20223;-77
2020/12/27 09:25:03;;;;;;;2.00;1.20;;;;;;;-0.82;67.29;99781.81;5055775;28;20219;-77
2020/12/27 09:27:30;;;;;;;2.07;1.23;;;;;;;-0.82;66.76;99784.38;5044473;28;20196;-76
2020/12/27 09:30:00;;;;;;;2.17;1.30;;;;;;;-0.82;67.59;99773.28;5047722;28;20276;-77
2020/12/27 09:32:32;;;;;;;2.37;1.53;;;;;;;-0.79;66.70;99775.88;5043426;28;20699;-77
2020/12/27 09:34:58;;;;;;;3.10;1.97;;;;;;;-0.77;66.71;99771.59;5047533;28;20198;-77
2020/12/27 09:37:24;;;;;;;2.93;1.70;;;;;;;-0.77;66.75;99767.34;5045745;28;20206;-77
2020/12/27 09:39:56;;;;;;;2.03;1.40;;;;;;;-0.72;66.37;99767.38;5030545;28;20202;-77
2020/12/27 09:42:23;;;;;;;2.73;1.37;;;;;;;-0.69;65.21;99772.50;5049207;28;20226;-77
2020/12/27 09:44:50;;;;;;;4.20;1.40;;;;;;;-0.67;65.86;99752.03;5049690;28;20226;-77
2020/12/27 09:47:27;;;;;;;1.87;1.27;;;;;;;-0.66;66.27;99739.22;5048911;28;20212;-77
2020/12/27 09:50:05;;;;;;;2.70;1.80;;;;;;;-0.62;65.95;99740.09;5044213;28;20199;-77
2020/12/27 09:52:42;;;;;;;3.30;1.80;;;;;;;-0.58;65.51;99735.00;5050236;28;20316;-76
2020/12/27 09:55:08;;;;;;;2.80;1.73;;;;;;;-0.53;66.90;99727.34;5046882;28;20551;-76
2020/12/27 09:57:34;;;;;;;3.03;1.83;;;;;;;-0.48;65.80;99741.03;5046777;28;20196;-77
2020/12/27 10:00:02;;;;;;;2.63;1.77;;;;;;;-0.46;65.49;99738.47;5044788;28;20191;-77
2020/12/27 10:02:31;;;;;;;2.63;1.77;;;;;;;-0.37;64.40;99728.25;5046319;28;20258;-77
2020/12/27 10:04:57;;;;;;;2.50;1.70;;;;;;;-0.34;65.29;99722.31;5040783;28;20215;-77
2020/12/27 10:07:23;;;;;;;2.80;1.50;;;;;;;-0.32;63.90;99716.31;5047655;28;20204;-77
2020/12/27 10:09:48;;;;;;;3.07;1.80;;;;;;;-0.29;63.76;99707.81;5028889;28;20250;-77
2020/12/27 10:12:14;;;;;;;4.23;1.60;;;;;;;-0.26;63.39;99695.88;5047114;28;20238;-77
2020/12/27 10:14:41;;;;;;;2.47;1.60;;;;;;;-0.25;63.66;99689.88;5047615;28;20211;-77
2020/12/27 10:17:08;;;;;;;2.20;1.43;;;;;;;-0.22;64.37;99674.50;5041030;28;20203;-77
2020/12/27 10:19:34;;;;;;;4.90;2.50;;;;;;;-0.18;64.20;99661.72;5055533;28;20197;-77
2020/12/27 10:21:59;;;;;;;6.93;3.20;;;;;;;-0.17;63.18;99661.72;5023256;28;20227;-77
2020/12/27 10:24:28;;;;;;;2.83;1.73;;;;;;;-0.15;62.70;99659.16;5043869;28;20203;-76
2020/12/27 10:26:54;;;;;;;1.63;1.43;;;;;;;-0.15;63.49;99652.31;5036905;28;20240;-77
2020/12/27 10:29:20;;;;;;;3.43;1.70;;;;;;;-0.13;63.76;99657.47;5033452;28;20235;-77
2020/12/27 10:31:49;;;;;;;2.57;1.43;;;;;;;-0.11;62.85;99653.19;5042118;28;20272;-77
2020/12/27 10:34:15;;;;;;;2.43;1.47;;;;;;;-0.09;62.86;99651.47;5039311;28;20307;-77
2020/12/27 10:36:44;;;;;;;2.50;1.70;;;;;;;-0.06;63.21;99648.94;5043817;28;20212;-77
2020/12/27 10:39:09;;;;;;;3.20;1.47;;;;;;;-0.05;63.44;99640.41;5042020;28;20192;-77
2020/12/27 10:41:38;;;;;;;4.93;1.60;;;;;;;-0.03;63.47;99644.66;5039670;28;20216;-76
2020/12/27 10:44:04;;;;;;;2.40;1.27;;;;;;;-0.02;62.25;99641.25;5038119;28;20216;-76
2020/12/27 10:46:30;;;;;;;2.57;1.53;;;;;;;0.01;61.87;99632.69;5043823;28;20200;-77
2020/12/27 10:48:56;;;;;;;1.93;1.37;;;;;;;0.02;61.74;99624.16;5039906;28;20706;-75
2020/12/27 10:51:22;;;;;;;2.23;1.50;;;;;;;0.05;62.16;99613.06;5045281;28;20219;-76
2020/12/27 10:53:48;;;;;;;1.60;1.20;;;;;;;0.07;60.92;99611.34;5046697;28;20205;-77
2020/12/27 10:56:14;;;;;;;1.33;1.10;;;;;;;0.12;61.46;99594.25;5044048;28;20226;-76
2020/12/27 10:58:40;;;;;;;1.70;1.20;;;;;;;0.15;60.53;99592.53;5042773;28;20203;-77
2020/12/27 11:01:05;;;;;;;1.57;1.20;;;;;;;0.18;60.56;99581.44;5042973;28;20284;-76
2020/12/27 11:03:31;;;;;;;3.93;1.53;;;;;;;0.21;60.66;99568.59;5045528;28;20203;-76
2020/12/27 11:05:57;;;;;;;1.50;1.27;;;;;;;0.24;59.09;99568.59;5042599;28;20226;-76
2020/12/27 11:08:24;;;;;;;1.43;1.00;;;;;;;0.26;59.32;99555.78;5046413;28;20219;-76
2020/12/27 11:10:50;;;;;;;2.13;1.33;;;;;;;0.29;60.07;99545.53;5042911;28;20203;-77
2020/12/27 11:13:15;;;;;;;2.33;1.50;;;;;;;0.33;59.09;99542.94;5039793;28;20450;-76
2020/12/27 11:15:41;;;;;;;1.47;1.10;;;;;;;0.34;58.73;99529.28;5041003;28;20285;-77
2020/12/27 11:18:07;;;;;;;1.20;1.10;;;;;;;0.41;59.18;99531.84;5041847;28;20213;-76
2020/12/27 11:20:33;;;;;;;1.77;1.03;;;;;;;0.44;58.85;99525.00;5045225;28;20202;-76
2020/12/27 11:22:59;;;;;;;1.73;1.30;;;;;;;0.45;58.80;99505.34;5024569;28;20649;-76
2020/12/27 11:25:27;;;;;;;1.43;1.20;;;;;;;0.49;57.77;99517.28;5045178;28;20631;-76
2020/12/27 11:27:53;;;;;;;1.60;1.07;;;;;;;0.52;57.23;99514.72;5040561;28;20229;-77
2020/12/27 11:30:19;;;;;;;3.63;1.37;;;;;;;0.56;58.63;99509.59;5047275;28;20602;-76
2020/12/27 11:32:45;;;;;;;3.07;1.57;;;;;;;0.62;57.58;99510.41;5023238;28;20359;-76
2020/12/27 11:35:12;;;;;;;2.10;1.33;;;;;;;0.66;57.88;99514.66;5039360;28;20203;-77
2020/12/27 11:37:37;;;;;;;2.43;1.53;;;;;;;0.67;57.12;99506.97;5041720;28;20607;-76
2020/12/27 11:40:04;;;;;;;9.33;3.80;;;;;;;0.69;57.51;99500.13;5043842;28;20196;-76
2020/12/27 11:42:31;;;;;;;19.57;9.00;;;;;;;0.68;56.72;99500.97;5045437;28;20214;-76
2020/12/27 11:44:57;;;;;;;13.70;6.00;;;;;;;0.69;57.23;99481.31;5040820;28;20231;-76
2020/12/27 11:47:23;;;;;;;26.63;9.90;;;;;;;0.69;56.58;99481.31;5047268;28;20208;-76
2020/12/27 11:49:49;;;;;;;33.17;11.10;;;;;;;0.69;56.69;99476.19;5039798;28;20210;-76
2020/12/27 11:52:14;;;;;;;23.40;8.47;;;;;;;0.73;56.41;99476.13;5042598;28;20665;-76